createdAt,value
2018-11-01T00:02:01.473Z,3.63
2018-11-01T00:04:29.626Z,3.30
2018-11-01T00:06:57.791Z,2.93
2018-11-01T00:09:25.982Z,3.03
2018-11-01T00:11:54.207Z,2.97
2018-11-01T00:14:22.354Z,2.60
2018-11-01T00:16:50.704Z,2.97
2018-11-01T00:19:18.885Z,5.43
2018-11-01T00:21:47.051Z,6.23
2018-11-01T00:24:15.251Z,6.27
2018-11-01T00:26:43.463Z,6.97
2018-11-01T00:29:11.937Z,8.23
2018-11-01T00:31:40.120Z,7.90
2018-11-01T00:34:08.300Z,7.13
2018-11-01T00:36:36.591Z,9.27
2018-11-01T00:39:07.900Z,6.47
2018-11-01T00:41:36.074Z,2.97
2018-11-01T00:44:04.235Z,3.60
2018-11-01T00:46:32.432Z,4.70
2018-11-01T00:49:00.589Z,4.80
2018-11-01T00:51:28.776Z,4.83
2018-11-01T00:53:56.952Z,4.63
2018-11-01T00:56:25.167Z,6.53
2018-11-01T00:58:53.327Z,5.73
2018-11-01T01:01:21.525Z,4.70
2018-11-01T01:03:49.673Z,3.70
2018-11-01T01:06:17.830Z,4.57
2018-11-01T01:08:46.010Z,6.50
2018-11-01T01:11:14.186Z,4.53
2018-11-01T01:13:43.182Z,6.00
2018-11-01T01:16:11.359Z,3.40
2018-11-01T01:18:39.530Z,5.37
2018-11-01T01:21:07.755Z,4.00
2018-11-01T01:23:36.291Z,4.87
2018-11-01T01:26:04.435Z,4.97
2018-11-01T01:28:32.607Z,6.47
2018-11-01T01:31:00.769Z,8.80
2018-11-01T01:33:28.948Z,8.03
2018-11-01T01:35:57.124Z,9.73
2018-11-01T01:38:25.300Z,8.30
2018-11-01T01:40:53.490Z,10.43
2018-11-01T01:43:21.671Z,8.70
2018-11-01T01:45:49.840Z,11.10
2018-11-01T01:48:18.029Z,9.73
2018-11-01T01:50:46.287Z,10.23
2018-11-01T01:53:14.394Z,8.17
2018-11-01T01:55:42.583Z,13.53
2018-11-01T01:58:10.776Z,12.80
2018-11-01T02:00:38.971Z,12.83
2018-11-01T02:03:07.152Z,12.63
2018-11-01T02:05:35.343Z,13.37
2018-11-01T02:08:03.525Z,13.10
2018-11-01T02:10:31.718Z,11.20
2018-11-01T02:12:59.882Z,9.60
2018-11-01T02:15:28.059Z,12.27
2018-11-01T02:17:56.272Z,8.30
2018-11-01T02:20:24.421Z,8.47
2018-11-01T02:22:52.667Z,11.70
2018-11-01T02:25:20.859Z,10.07
2018-11-01T02:27:54.417Z,9.67
2018-11-01T02:30:22.604Z,9.73
2018-11-01T02:32:50.768Z,10.23
2018-11-01T02:35:19.659Z,8.90
2018-11-01T02:37:47.861Z,9.70
2018-11-01T02:40:16.621Z,8.43
2018-11-01T02:42:45.586Z,8.47
2018-11-01T02:45:14.502Z,5.87
2018-11-01T02:47:42.700Z,10.00
2018-11-01T02:50:11.989Z,6.53
2018-11-01T02:52:40.231Z,8.93
2018-11-01T02:55:08.951Z,5.37
2018-11-01T02:57:37.115Z,6.53
2018-11-01T03:00:07.340Z,6.03
2018-11-01T03:02:35.543Z,3.87
2018-11-01T03:05:03.779Z,4.27
2018-11-01T03:07:31.959Z,3.63
2018-11-01T03:10:00.141Z,4.70
2018-11-01T03:12:28.282Z,2.87
2018-11-01T03:14:56.447Z,4.00
2018-11-01T03:17:24.603Z,6.13
2018-11-01T03:19:52.770Z,8.70
2018-11-01T03:22:20.910Z,7.70
2018-11-01T03:24:49.064Z,10.80
2018-11-01T03:27:17.217Z,12.23
2018-11-01T03:29:45.378Z,11.53
2018-11-01T03:32:13.535Z,6.47
2018-11-01T03:34:41.688Z,6.50
2018-11-01T03:37:09.839Z,6.40
2018-11-01T03:39:38.012Z,3.80
2018-11-01T03:42:06.308Z,4.87
2018-11-01T03:44:34.454Z,3.57
2018-11-01T03:47:02.615Z,2.73
2018-11-01T03:49:30.806Z,3.80
2018-11-01T03:51:59.053Z,2.50
2018-11-01T03:54:33.976Z,4.20
2018-11-01T03:57:02.077Z,4.07
2018-11-01T03:59:30.252Z,3.27
2018-11-01T04:01:58.424Z,2.53
2018-11-01T04:04:26.588Z,2.67
2018-11-01T04:06:54.711Z,3.50
2018-11-01T04:09:22.867Z,3.93
2018-11-01T04:11:51.033Z,4.00
2018-11-01T04:14:25.830Z,3.30
2018-11-01T04:16:54.062Z,2.67
2018-11-01T04:19:22.235Z,3.07
2018-11-01T04:21:54.984Z,2.70
2018-11-01T04:24:23.150Z,3.67
2018-11-01T04:26:52.068Z,4.03
2018-11-01T04:29:20.195Z,7.20
2018-11-01T04:31:48.350Z,8.10
2018-11-01T04:34:16.554Z,5.63
2018-11-01T04:36:44.737Z,7.50
2018-11-01T04:39:12.908Z,5.70
2018-11-01T04:41:41.059Z,7.37
2018-11-01T04:44:09.244Z,8.10
2018-11-01T04:46:37.455Z,5.37
2018-11-01T04:49:05.968Z,7.70
2018-11-01T04:51:34.143Z,7.20
2018-11-01T04:54:02.290Z,7.90
2018-11-01T04:56:30.447Z,9.23
2018-11-01T04:58:58.623Z,8.87
2018-11-01T05:01:26.807Z,6.47
2018-11-01T05:03:55.580Z,13.47
2018-11-01T05:06:23.739Z,11.97
2018-11-01T05:08:52.276Z,11.10
2018-11-01T05:11:20.399Z,7.27
2018-11-01T05:13:49.178Z,5.27
2018-11-01T05:16:17.381Z,4.87
2018-11-01T05:18:45.942Z,4.47
2018-11-01T05:21:14.522Z,2.90
2018-11-01T05:23:42.665Z,2.07
2018-11-01T05:26:10.838Z,3.43
2018-11-01T05:28:39.042Z,3.07
2018-11-01T05:31:07.243Z,2.60
2018-11-01T05:33:35.378Z,2.10
2018-11-01T05:36:03.571Z,2.30
2018-11-01T05:38:31.718Z,2.43
2018-11-01T05:40:59.899Z,3.90
2018-11-01T05:43:29.147Z,2.87
2018-11-01T05:45:57.965Z,3.03
2018-11-01T05:48:26.116Z,8.03
2018-11-01T05:50:54.287Z,4.00
2018-11-01T05:53:22.828Z,2.87
2018-11-01T05:55:50.996Z,2.37
2018-11-01T05:58:19.167Z,3.53
2018-11-01T06:00:47.302Z,1.97
2018-11-01T06:03:15.490Z,1.87
2018-11-01T06:05:43.725Z,2.83
2018-11-01T06:08:16.368Z,3.10
2018-11-01T06:10:44.560Z,2.50
2018-11-01T06:13:12.774Z,2.50
2018-11-01T06:15:41.012Z,2.37
2018-11-01T06:18:09.276Z,5.20
2018-11-01T06:20:37.432Z,3.17
2018-11-01T06:23:06.279Z,2.40
2018-11-01T06:25:34.426Z,4.40
2018-11-01T06:28:02.667Z,2.83
2018-11-01T06:30:30.870Z,3.63
2018-11-01T06:32:59.019Z,2.87
2018-11-01T06:35:30.641Z,4.17
2018-11-01T06:37:58.955Z,8.87
2018-11-01T06:40:27.191Z,6.13
2018-11-01T06:42:55.362Z,6.73
2018-11-01T06:45:23.558Z,9.57
2018-11-01T06:47:51.714Z,9.33
2018-11-01T06:50:19.907Z,10.23
2018-11-01T06:52:48.073Z,13.80
2018-11-01T06:55:16.227Z,17.67
2018-11-01T06:57:44.502Z,15.00
2018-11-01T07:00:14.795Z,15.17
2018-11-01T07:02:43.342Z,15.23
2018-11-01T07:05:11.514Z,17.80
2018-11-01T07:07:40.016Z,13.83
2018-11-01T07:10:10.235Z,13.63
2018-11-01T07:12:38.418Z,15.53
2018-11-01T07:15:07.958Z,13.97
2018-11-01T07:17:36.364Z,15.87
2018-11-01T07:20:04.646Z,15.10
2018-11-01T07:22:32.900Z,14.23
2018-11-01T07:25:01.051Z,12.53
2018-11-01T07:27:29.303Z,12.37
2018-11-01T07:29:57.502Z,11.90
2018-11-01T07:32:25.735Z,6.33
2018-11-01T07:34:53.840Z,6.37
2018-11-01T07:37:21.992Z,3.83
2018-11-01T07:39:50.203Z,3.07
2018-11-01T07:42:18.334Z,2.80
2018-11-01T07:44:47.035Z,2.80
2018-11-01T07:47:15.222Z,2.47
2018-11-01T07:49:43.540Z,3.13
2018-11-01T07:52:11.688Z,3.17
2018-11-01T07:54:39.933Z,4.73
2018-11-01T07:57:08.099Z,2.73
2018-11-01T07:59:36.273Z,3.37
2018-11-01T08:02:04.848Z,3.27
2018-11-01T08:04:33.080Z,3.37
2018-11-01T08:07:01.246Z,3.23
2018-11-01T08:09:29.519Z,2.57
2018-11-01T08:11:57.723Z,5.13
2018-11-01T08:14:25.867Z,2.50
2018-11-01T08:16:54.028Z,3.97
2018-11-01T08:19:22.270Z,3.10
2018-11-01T08:21:50.359Z,3.80
2018-11-01T08:24:18.516Z,3.90
2018-11-01T08:26:46.760Z,4.47
2018-11-01T08:29:14.908Z,3.10
2018-11-01T08:31:43.164Z,3.27
2018-11-01T08:34:11.353Z,4.27
2018-11-01T08:36:39.512Z,4.73
2018-11-01T08:39:08.380Z,3.70
2018-11-01T08:41:36.531Z,3.83
2018-11-01T08:44:05.321Z,5.33
2018-11-01T08:46:33.486Z,3.30
2018-11-01T08:49:01.691Z,4.23
2018-11-01T08:51:29.851Z,4.43
2018-11-01T08:53:58.322Z,3.30
2018-11-01T08:56:26.535Z,3.27
2018-11-01T08:58:54.750Z,4.63
2018-11-01T09:01:22.950Z,3.63
2018-11-01T09:03:51.111Z,4.27
2018-11-01T09:06:19.259Z,4.40
2018-11-01T09:08:47.446Z,4.60
2018-11-01T09:11:15.627Z,3.73
2018-11-01T09:13:43.803Z,7.30
2018-11-01T09:16:11.971Z,3.77
2018-11-01T09:18:40.166Z,7.27
2018-11-01T09:21:08.335Z,5.00
2018-11-01T09:23:36.491Z,4.70
2018-11-01T09:26:04.744Z,4.53
2018-11-01T09:28:32.888Z,3.50
2018-11-01T09:31:01.067Z,6.53
2018-11-01T09:33:29.298Z,3.40
2018-11-01T09:35:57.444Z,3.30
2018-11-01T09:38:25.588Z,4.23
2018-11-01T09:40:53.750Z,6.40
2018-11-01T09:43:22.021Z,7.27
2018-11-01T09:45:50.423Z,6.30
2018-11-01T09:48:18.885Z,6.03
2018-11-01T09:50:47.038Z,4.40
2018-11-01T09:53:15.196Z,3.37
2018-11-01T09:55:43.406Z,3.67
2018-11-01T09:58:11.520Z,3.67
2018-11-01T10:00:39.702Z,3.93
2018-11-01T10:03:07.905Z,4.57
2018-11-01T10:05:36.063Z,3.70
2018-11-01T10:08:04.227Z,4.67
2018-11-01T10:10:32.487Z,6.13
2018-11-01T10:13:00.705Z,4.43
2018-11-01T10:15:28.999Z,4.07
2018-11-01T10:17:57.460Z,5.10
2018-11-01T10:20:25.271Z,4.13
2018-11-01T10:22:53.553Z,3.90
2018-11-01T10:25:21.788Z,4.53
2018-11-01T10:27:49.919Z,5.40
2018-11-01T10:30:19.764Z,5.43
2018-11-01T10:32:47.936Z,6.13
2018-11-01T10:35:17.131Z,5.90
2018-11-01T10:37:45.316Z,7.20
2018-11-01T10:40:14.898Z,5.63
2018-11-01T10:42:43.055Z,6.40
2018-11-01T10:45:11.248Z,6.03
2018-11-01T10:47:39.686Z,4.87
2018-11-01T10:50:14.670Z,8.70
2018-11-01T10:52:42.895Z,6.10
2018-11-01T10:55:12.048Z,5.23
2018-11-01T10:57:40.544Z,4.53
2018-11-01T11:00:15.446Z,4.73
2018-11-01T11:02:46.087Z,5.90
2018-11-01T11:05:14.934Z,3.77
2018-11-01T11:07:43.102Z,4.50
2018-11-01T11:10:11.250Z,3.23
2018-11-01T11:12:39.423Z,3.00
2018-11-01T11:15:08.367Z,5.60
2018-11-01T11:17:36.554Z,5.37
2018-11-01T11:20:05.371Z,3.90
2018-11-01T11:22:33.618Z,3.70
2018-11-01T11:25:01.779Z,5.03
2018-11-01T11:27:29.945Z,4.83
2018-11-01T11:29:58.198Z,3.87
2018-11-01T11:32:26.270Z,9.20
2018-11-01T11:34:54.431Z,5.80
2018-11-01T11:37:22.625Z,4.30
2018-11-01T11:39:50.925Z,4.57
2018-11-01T11:42:19.016Z,4.40
2018-11-01T11:44:47.174Z,5.27
2018-11-01T11:47:15.371Z,4.83
2018-11-01T11:49:43.543Z,5.00
2018-11-01T11:52:11.738Z,5.23
2018-11-01T11:54:39.954Z,4.43
2018-11-01T11:57:08.165Z,5.63
2018-11-01T11:59:36.259Z,6.30
2018-11-01T12:02:04.521Z,7.50
2018-11-01T12:04:32.615Z,4.57
2018-11-01T12:07:00.813Z,5.33
2018-11-01T12:09:28.971Z,6.37
2018-11-01T12:11:57.212Z,7.43
2018-11-01T12:14:25.481Z,5.43
2018-11-01T12:16:53.651Z,5.23
2018-11-01T12:19:21.820Z,5.47
2018-11-01T12:21:50.018Z,3.90
2018-11-01T12:24:18.192Z,4.30
2018-11-01T12:26:46.367Z,5.90
2018-11-01T12:29:14.567Z,4.10
2018-11-01T12:31:42.739Z,4.03
2018-11-01T12:34:10.930Z,5.57
2018-11-01T12:36:39.106Z,5.27
2018-11-01T12:39:08.048Z,3.53
2018-11-01T12:41:36.418Z,3.90
2018-11-01T12:44:04.584Z,9.70
2018-11-01T12:46:32.812Z,3.57
2018-11-01T12:49:01.020Z,4.90
2018-11-01T12:51:29.192Z,5.10
2018-11-01T12:53:57.879Z,4.77
2018-11-01T12:56:26.149Z,3.97
2018-11-01T12:58:54.196Z,3.93
2018-11-01T13:01:22.424Z,4.07
2018-11-01T13:03:50.606Z,4.40
2018-11-01T13:06:18.784Z,4.07
2018-11-01T13:08:46.949Z,4.90
2018-11-01T13:11:15.162Z,4.27
2018-11-01T13:13:43.339Z,7.13
2018-11-01T13:16:11.643Z,5.47
2018-11-01T13:18:39.826Z,5.63
2018-11-01T13:21:07.996Z,6.13
2018-11-01T13:23:36.882Z,4.97
2018-11-01T13:26:05.106Z,5.43
2018-11-01T13:28:33.250Z,5.37
2018-11-01T13:31:01.504Z,4.50
2018-11-01T13:33:29.658Z,5.73
2018-11-01T13:35:57.875Z,4.70
2018-11-01T13:38:26.034Z,5.33
2018-11-01T13:40:54.693Z,8.93
2018-11-01T13:43:22.456Z,8.00
2018-11-01T13:45:50.697Z,7.07
2018-11-01T13:48:19.081Z,10.97
2018-11-01T13:50:47.155Z,6.40
2018-11-01T13:53:15.727Z,8.20
2018-11-01T13:55:43.996Z,6.17
2018-11-01T13:58:12.202Z,6.77
2018-11-01T14:00:41.487Z,7.27
2018-11-01T14:03:09.702Z,5.90
2018-11-01T14:05:37.887Z,6.53
2018-11-01T14:08:06.165Z,7.50
2018-11-01T14:10:34.403Z,7.03
2018-11-01T14:13:02.621Z,8.10
2018-11-01T14:15:30.857Z,7.57
2018-11-01T14:17:58.957Z,6.27
2018-11-01T14:20:27.182Z,6.33
2018-11-01T14:22:55.358Z,6.40
2018-11-01T14:25:23.574Z,6.67
2018-11-01T14:27:51.705Z,6.40
2018-11-01T14:30:19.858Z,5.43
2018-11-01T14:32:48.016Z,7.63
2018-11-01T14:35:16.202Z,5.67
2018-11-01T14:37:44.383Z,7.40
2018-11-01T14:40:13.609Z,6.00
2018-11-01T14:42:41.915Z,6.77
2018-11-01T14:45:10.331Z,6.37
2018-11-01T14:47:38.622Z,6.03
2018-11-01T14:50:07.535Z,12.87
2018-11-01T14:52:36.003Z,9.17
2018-11-01T14:55:05.083Z,9.53
2018-11-01T14:57:33.610Z,13.63
2018-11-01T15:00:00.156Z,6.43
2018-11-01T15:02:28.296Z,6.27
2018-11-01T15:04:56.504Z,8.43
2018-11-01T15:07:24.766Z,9.23
2018-11-01T15:09:52.915Z,6.20
2018-11-01T15:12:21.807Z,8.67
2018-11-01T15:14:49.983Z,8.37
2018-11-01T15:17:18.125Z,6.53
2018-11-01T15:19:46.271Z,6.67
2018-11-01T15:22:14.423Z,7.20
2018-11-01T15:24:42.604Z,7.37
2018-11-01T15:27:10.806Z,8.70
2018-11-01T15:29:39.005Z,6.83
2018-11-01T15:32:07.158Z,6.07
2018-11-01T15:34:35.347Z,6.97
2018-11-01T15:37:03.490Z,7.00
2018-11-01T15:39:31.630Z,6.20
2018-11-01T15:41:59.775Z,6.93
2018-11-01T15:44:27.940Z,5.70
2018-11-01T15:46:56.213Z,6.47
2018-11-01T15:49:24.367Z,6.63
2018-11-01T15:51:52.587Z,6.37
2018-11-01T15:54:20.730Z,7.20
2018-11-01T15:56:49.199Z,6.67
2018-11-01T15:59:17.381Z,6.77
2018-11-01T16:01:45.538Z,6.63
2018-11-01T16:04:13.825Z,6.70
2018-11-01T16:06:42.076Z,7.73
2018-11-01T16:09:11.904Z,7.93
2018-11-01T16:11:40.055Z,7.03
2018-11-01T16:14:08.784Z,6.70
2018-11-01T16:16:37.154Z,10.03
2018-11-01T16:19:05.575Z,7.07
2018-11-01T16:21:33.786Z,6.97
2018-11-01T16:24:01.935Z,8.93
2018-11-01T16:26:30.126Z,9.37
2018-11-01T16:28:58.748Z,7.40
2018-11-01T16:31:27.575Z,9.00
2018-11-01T16:33:56.264Z,8.93
2018-11-01T16:36:24.773Z,7.00
2018-11-01T16:38:53.184Z,7.50
2018-11-01T16:41:21.693Z,7.20
2018-11-01T16:43:50.436Z,7.63
2018-11-01T16:46:19.311Z,6.60
2018-11-01T16:48:48.779Z,7.53
2018-11-01T16:51:19.021Z,6.70
2018-11-01T16:53:47.163Z,20.43
2018-11-01T16:56:15.386Z,6.80
2018-11-01T16:58:43.779Z,8.33
2018-11-01T17:01:12.170Z,9.20
2018-11-01T17:03:40.888Z,8.17
2018-11-01T17:06:09.340Z,8.37
2018-11-01T17:08:38.001Z,8.00
2018-11-01T17:11:06.731Z,7.63
2018-11-01T17:13:35.270Z,7.57
2018-11-01T17:16:03.417Z,8.33
2018-11-01T17:18:31.570Z,7.67
2018-11-01T17:20:59.763Z,7.97
2018-11-01T17:23:27.922Z,10.83
2018-11-01T17:25:56.137Z,7.13
2018-11-01T17:28:31.067Z,8.53
2018-11-01T17:30:59.266Z,9.40
2018-11-01T17:33:27.467Z,6.60
2018-11-01T17:35:55.695Z,8.67
2018-11-01T17:38:23.834Z,7.07
2018-11-01T17:40:52.016Z,6.47
2018-11-01T17:43:20.194Z,7.93
2018-11-01T17:45:48.398Z,8.60
2018-11-01T17:48:16.600Z,8.13
2018-11-01T17:50:44.849Z,7.60
2018-11-01T17:53:13.053Z,8.40
2018-11-01T17:55:41.227Z,8.60
2018-11-01T17:58:09.403Z,10.17
2018-11-01T18:00:37.569Z,11.07
2018-11-01T18:03:05.879Z,9.67
2018-11-01T18:05:34.040Z,8.60
2018-11-01T18:08:03.066Z,9.00
2018-11-01T18:10:31.223Z,10.77
2018-11-01T18:12:59.448Z,7.50
2018-11-01T18:15:27.618Z,10.60
2018-11-01T18:17:55.779Z,8.53
2018-11-01T18:20:23.959Z,7.90
2018-11-01T18:22:52.119Z,6.57
2018-11-01T18:25:20.348Z,6.87
2018-11-01T18:27:48.495Z,7.57
2018-11-01T18:30:17.568Z,8.10
2018-11-01T18:32:46.218Z,8.57
2018-11-01T18:35:14.215Z,6.93
2018-11-01T18:37:42.795Z,8.23
2018-11-01T18:40:13.863Z,9.47
2018-11-01T18:42:42.567Z,8.43
2018-11-01T18:45:12.555Z,9.13
2018-11-01T18:47:40.782Z,7.07
2018-11-01T18:50:10.127Z,9.50
2018-11-01T18:52:38.357Z,8.27
2018-11-01T18:55:07.443Z,6.33
2018-11-01T18:57:35.611Z,7.53
2018-11-01T19:00:03.958Z,10.53
2018-11-01T19:02:32.178Z,8.00
2018-11-01T19:05:00.307Z,7.60
2018-11-01T19:07:28.621Z,8.57
2018-11-01T19:09:56.785Z,9.43
2018-11-01T19:12:24.934Z,11.97
2018-11-01T19:14:53.114Z,8.67
2018-11-01T19:17:21.314Z,10.20
2018-11-01T19:19:49.455Z,14.70
2018-11-01T19:22:17.722Z,9.03
2018-11-01T19:24:46.021Z,8.93
2018-11-01T19:27:14.457Z,11.47
2018-11-01T19:29:42.323Z,11.13
2018-11-01T19:32:10.486Z,7.37
2018-11-01T19:34:38.897Z,7.30
2018-11-01T19:37:07.027Z,6.30
2018-11-01T19:39:35.223Z,5.97
2018-11-01T19:42:03.368Z,6.53
2018-11-01T19:44:31.520Z,7.57
2018-11-01T19:46:59.675Z,7.10
2018-11-01T19:49:27.857Z,8.10
2018-11-01T19:51:56.000Z,7.40
2018-11-01T19:54:24.134Z,6.63
2018-11-01T19:56:52.270Z,8.00
2018-11-01T19:59:20.424Z,6.93
2018-11-01T20:01:48.584Z,5.50
2018-11-01T20:04:16.916Z,7.97
2018-11-01T20:06:44.952Z,6.27
2018-11-01T20:09:13.176Z,7.53
2018-11-01T20:11:41.334Z,7.40
2018-11-01T20:14:09.515Z,7.67
2018-11-01T20:16:37.646Z,7.67
2018-11-01T20:19:05.903Z,6.07
2018-11-01T20:21:34.089Z,7.70
2018-11-01T20:24:02.283Z,6.10
2018-11-01T20:26:30.466Z,11.90
2018-11-01T20:28:58.644Z,5.90
2018-11-01T20:31:26.921Z,7.27
2018-11-01T20:33:54.972Z,6.03
2018-11-01T20:36:23.124Z,7.87
2018-11-01T20:38:51.394Z,7.00
2018-11-01T20:41:19.551Z,6.87
2018-11-01T20:43:48.042Z,7.33
2018-11-01T20:46:16.210Z,10.97
2018-11-01T20:48:44.476Z,9.47
2018-11-01T20:51:12.624Z,9.23
2018-11-01T20:53:40.783Z,13.17
2018-11-01T20:56:08.942Z,12.77
2018-11-01T20:58:37.102Z,12.03
2018-11-01T21:01:05.516Z,10.63
2018-11-01T21:03:33.687Z,10.57
2018-11-01T21:06:01.834Z,10.63
2018-11-01T21:08:29.988Z,9.80
2018-11-01T21:10:58.171Z,12.37
2018-11-01T21:13:26.333Z,11.50
2018-11-01T21:15:54.528Z,13.00
2018-11-01T21:18:22.687Z,13.97
2018-11-01T21:20:50.862Z,10.57
2018-11-01T21:23:19.031Z,11.77
2018-11-01T21:25:47.191Z,9.63
2018-11-01T21:28:15.339Z,12.67
2018-11-01T21:30:43.489Z,10.50
2018-11-01T21:33:11.775Z,10.80
2018-11-01T21:35:39.998Z,13.73
2018-11-01T21:38:08.092Z,13.43
2018-11-01T21:40:36.271Z,12.80
2018-11-01T21:43:04.648Z,13.00
2018-11-01T21:45:32.822Z,14.23
2018-11-01T21:48:00.987Z,11.17
2018-11-01T21:50:29.171Z,11.07
2018-11-01T21:52:57.345Z,11.53
2018-11-01T21:55:25.529Z,11.73
2018-11-01T21:57:53.648Z,9.87
2018-11-01T22:00:21.802Z,13.77
2018-11-01T22:02:49.957Z,10.77
2018-11-01T22:05:18.118Z,12.30
2018-11-01T22:07:46.279Z,13.77
2018-11-01T22:10:14.448Z,11.30
2018-11-01T22:12:42.601Z,14.60
2018-11-01T22:15:11.640Z,10.97
2018-11-01T22:17:40.404Z,12.13
2018-11-01T22:20:09.487Z,11.47
2018-11-01T22:22:37.704Z,11.07
2018-11-01T22:25:06.635Z,11.60
2018-11-01T22:27:34.919Z,10.10
2018-11-01T22:30:03.185Z,9.00
2018-11-01T22:32:31.375Z,8.13
2018-11-01T22:34:59.530Z,8.03
2018-11-01T22:37:27.671Z,8.97
2018-11-01T22:39:55.888Z,9.10
2018-11-01T22:42:24.076Z,8.10
2018-11-01T22:44:52.211Z,7.60
2018-11-01T22:47:20.366Z,7.80
2018-11-01T22:49:48.523Z,8.03
2018-11-01T22:52:16.688Z,8.37
2018-11-01T22:54:44.841Z,8.77
2018-11-01T22:57:13.035Z,7.37
2018-11-01T22:59:41.249Z,8.53
2018-11-01T23:02:09.338Z,8.70
2018-11-01T23:04:37.511Z,7.37
2018-11-01T23:07:05.747Z,6.87
2018-11-01T23:09:33.907Z,9.33
2018-11-01T23:12:02.083Z,6.50
2018-11-01T23:14:30.225Z,8.50
2018-11-01T23:16:58.355Z,6.93
2018-11-01T23:19:26.520Z,8.27
2018-11-01T23:21:54.666Z,9.90
2018-11-01T23:24:22.835Z,7.40
2018-11-01T23:26:51.007Z,8.00
2018-11-01T23:29:19.186Z,7.93
2018-11-01T23:31:47.327Z,8.17
2018-11-01T23:34:15.503Z,8.93
2018-11-01T23:36:48.952Z,7.63
2018-11-01T23:39:22.574Z,7.87
2018-11-01T23:41:56.027Z,7.10
2018-11-01T23:44:29.674Z,6.50
2018-11-01T23:47:03.083Z,10.33
2018-11-01T23:49:35.046Z,9.00
2018-11-01T23:52:08.355Z,9.03
2018-11-01T23:54:36.533Z,6.20
2018-11-01T23:57:04.728Z,7.73
2018-11-01T23:59:32.880Z,7.37
